MST,Max TemperatureF,Mean TemperatureF,Min TemperatureF,Max Dew PointF,MeanDew PointF,Min DewpointF,Max Humidity, Mean Humidity, Min Humidity, Max Sea Level PressureIn, Mean Sea Level PressureIn, Min Sea Level PressureIn, Max VisibilityMiles, Mean VisibilityMiles, Min VisibilityMiles, Max Wind SpeedMPH, Mean Wind SpeedMPH, Max Gust SpeedMPH,PrecipitationIn, CloudCover, Events, WindDirDegrees
2011-11-1,84,70,57,29,25,23,29,20,12,29.88,29.83,29.78,10,10,10,15,3,20,0.00,0,,203
2011-11-2,77,66,54,19,6,0,15,10,5,30.12,30.04,29.91,10,10,10,23,11,30,0.00,0,,6
2011-11-3,79,66,54,20,13,5,19,13,9,30.06,29.95,29.81,10,10,7,10,5,,0.00,0,,61
2011-11-4,77,66,54,53,37,20,88,41,17,29.79,29.66,29.56,10,8,2,22,10,33,0.16,4,Rain-Thunderstorm,190
2011-11-5,57,52,46,50,42,34,94,70,41,29.97,29.85,29.61,10,9,2,26,11,39,0.54,4,Rain,218
2011-11-6,62,54,45,40,37,31,80,55,31,30.01,29.95,29.91,10,10,10,9,4,,0.00,1,,63
2011-11-7,57,51,45,43,40,33,86,68,40,30.11,29.98,29.86,10,10,6,17,5,25,0.09,4,Rain,241
2011-11-8,61,51,41,39,36,32,86,59,34,30.22,30.17,30.12,10,10,10,7,2,,0.00,0,,326
2011-11-9,73,60,46,38,26,20,68,30,14,30.27,30.21,30.15,10,10,10,14,7,23,0.09,0,,48
2011-11-10,73,64,55,28,24,20,33,22,14,30.29,30.14,30.02,10,10,10,14,9,23,0.00,0,,69
2011-11-11,70,65,59,28,23,19,31,21,15,30.00,29.92,29.86,10,10,10,9,5,,0.00,0,,85
2011-11-12,72,62,51,52,32,26,72,33,19,29.89,29.85,29.82,10,10,8,9,4,,0.01,3,Rain,107
2011-11-13,64,60,55,56,53,47,94,79,52,29.95,29.89,29.82,10,9,4,6,4,,0.16,6,Rain,76
2011-11-14,68,59,50,49,46,40,89,64,36,29.94,29.89,29.83,10,10,10,7,2,,0.00,1,,266
2011-11-15,68,59,50,48,46,44,83,61,42,30.01,29.97,29.92,10,10,10,10,4,,0.00,0,,237
2011-11-16,71,60,50,47,46,43,86,62,36,30.12,30.07,30.00,10,10,10,9,2,,0.00,0,,36
2011-11-17,73,62,51,44,40,35,74,48,24,30.08,29.98,29.88,10,10,10,7,3,,0.00,0,,6
2011-11-18,71,61,51,42,40,37,63,48,29,29.90,29.84,29.78,10,10,10,8,3,,0.00,0,,137
2011-11-19,68,60,52,42,40,37,69,48,33,29.86,29.83,29.80,10,10,10,9,4,,0.00,0,,124
2011-11-20,66,58,50,45,43,41,74,61,45,29.96,29.91,29.86,10,10,10,8,1,,0.00,1,,290
2011-11-21,64,58,53,52,47,41,89,70,45,30.19,30.03,29.92,10,10,5,7,3,,0.03,4,Rain-Thunderstorm,252
2011-11-22,70,59,48,43,40,37,74,53,30,30.24,30.16,30.09,10,10,10,6,1,,0.00,0,,348
2011-11-23,78,66,53,39,33,29,55,34,17,30.11,29.98,29.89,10,10,9,9,4,,0.00,0,,101
2011-11-24,66,58,50,46,37,30,65,42,30,29.99,29.92,29.85,10,10,10,10,5,,0.00,4,,202
2011-11-25,66,58,50,46,43,40,80,58,37,30.14,30.03,29.94,10,10,10,9,3,,0.00,1,,169
2011-11-26,78,62,46,42,27,7,71,39,7,30.32,30.23,30.16,10,10,10,14,5,,0.00,0,,59
2011-11-27,72,62,53,22,12,4,29,16,9,30.40,30.31,30.25,10,10,10,9,4,,0.00,0,,75
2011-11-28,72,59,46,27,23,18,39,27,13,30.22,30.14,30.06,10,10,10,8,2,,0.00,0,,16
2011-11-29,70,58,46,30,28,25,48,33,18,30.12,30.05,30.01,10,10,10,7,3,,0.00,0,,305
2011-11-30,73,60,46,30,27,24,48,32,16,30.02,29.84,29.58,10,10,10,9,2,,0.00,0,,141